Time;durP1;ratioP1;P1;durP2;ratioP2;P2;SDS_P1;SDS_P2;PMS_P1;PMS_P2;Temp;Humidity;BMP_temperature;BMP_pressure;BME280_temperature;BME280_humidity;BME280_pressure;Samples;Min_cycle;Max_cycle;Signal;HPM_P1;HPM_P2
2022/02/08 00:02:00;;;;;;;6.38;2.20;;;5.50;99.90;;;;;;5036857;28;20049;-71
2022/02/08 00:04:26;;;;;;;6.25;2.28;;;5.50;99.90;;;;;;5037021;28;20037;-71
2022/02/08 00:06:52;;;;;;;7.07;2.10;;;5.10;99.90;;;;;;5036698;28;20037;-71
2022/02/08 00:09:19;;;;;;;6.82;1.95;;;5.20;98.90;;;;;;5035929;28;20050;-71
2022/02/08 00:11:45;;;;;;;5.07;1.77;;;5.20;99.30;;;;;;5036527;28;20129;-71
2022/02/08 00:14:11;;;;;;;11.52;2.42;;;5.30;99.90;;;;;;5036612;28;20033;-71
2022/02/08 00:16:37;;;;;;;4.78;1.85;;;5.30;99.90;;;;;;5036775;28;20064;-71
2022/02/08 00:19:04;;;;;;;6.88;2.67;;;5.50;99.90;;;;;;5036027;28;20045;-72
2022/02/08 00:21:31;;;;;;;6.90;2.13;;;5.40;99.90;;;;;;5036396;28;20072;-72
2022/02/08 00:23:57;;;;;;;5.82;1.65;;;5.50;99.90;;;;;;5036388;28;20038;-72
2022/02/08 00:26:23;;;;;;;5.40;1.50;;;5.40;99.90;;;;;;5036301;28;20549;-71
2022/02/08 00:28:49;;;;;;;5.85;1.30;;;5.40;99.90;;;;;;5035886;28;20080;-71
2022/02/08 00:31:15;;;;;;;10.05;3.88;;;5.50;99.90;;;;;;5036560;28;20130;-72
2022/02/08 00:33:40;;;;;;;10.02;2.88;;;5.40;99.90;;;;;;5036049;28;20053;-72
2022/02/08 00:36:06;;;;;;;7.00;2.70;;;5.40;95.50;;;;;;5036141;28;20033;-72
2022/02/08 00:38:34;;;;;;;7.72;2.58;;;5.30;99.20;;;;;;5036056;28;20038;-72
2022/02/08 00:41:01;;;;;;;9.50;2.47;;;5.20;97.30;;;;;;5035763;28;20033;-71
2022/02/08 00:43:34;;;;;;;5.85;2.10;;;5.10;96.90;;;;;;5036048;28;20037;-71
2022/02/08 00:46:07;;;;;;;5.20;1.45;;;5.10;99.30;;;;;;5035762;28;20039;-72
2022/02/08 00:48:48;;;;;;;5.85;1.40;;;5.10;99.90;;;;;;5035413;28;20037;-71
2022/02/08 00:51:14;;;;;;;7.43;1.50;;;5.30;96.70;;;;;;5035289;28;20033;-71
2022/02/08 00:53:40;;;;;;;7.70;1.98;;;5.60;98.60;;;;;;5035798;28;20052;-71
2022/02/08 00:56:05;;;;;;;9.85;2.40;;;5.50;99.90;;;;;;5035750;28;20041;-71
2022/02/08 00:58:32;;;;;;;8.75;2.70;;;5.30;98.70;;;;;;5035452;28;20502;-71
2022/02/08 01:00:58;;;;;;;9.32;2.13;;;5.10;99.90;;;;;;5036031;28;20064;-72
2022/02/08 01:03:24;;;;;;;7.18;1.92;;;5.10;99.00;;;;;;5035586;28;20110;-72
2022/02/08 01:05:56;;;;;;;6.75;1.90;;;5.10;99.70;;;;;;5034728;28;20487;-72
2022/02/08 01:08:28;;;;;;;5.57;2.30;;;5.20;88.80;;;;;;5035719;28;20094;-72
2022/02/08 01:10:54;;;;;;;5.70;2.08;;;4.80;88.20;;;;;;5034828;28;20495;-72
2022/02/08 01:13:20;;;;;;;10.38;2.70;;;4.60;90.30;;;;;;5035073;28;20041;-72
2022/02/08 01:15:46;;;;;;;9.40;2.22;;;4.60;93.30;;;;;;5035424;28;20037;-72
2022/02/08 01:18:12;;;;;;;8.27;2.70;;;4.60;93.50;;;;;;5035372;28;20042;-71
2022/02/08 01:20:39;;;;;;;9.82;2.92;;;4.70;90.00;;;;;;5035241;28;20045;-71
2022/02/08 01:23:07;;;;;;;6.30;2.08;;;4.70;62.70;;;;;;5035428;28;20095;-72
2022/02/08 01:25:41;;;;;;;11.07;4.70;;;4.70;70.60;;;;;;5034924;28;20036;-72
2022/02/08 01:28:36;;;;;;;4.32;1.48;;;4.70;61.70;;;;;;5035106;28;20563;-72
2022/02/08 01:31:06;;;;;;;5.20;1.30;;;5.70;52.00;;;;;;5036086;28;20061;-71
2022/02/08 01:34:27;;;;;;;5.57;1.70;;;5.90;45.40;;;;;;5034192;28;20427;-71
2022/02/08 01:36:37;;;;;;;4.32;1.27;;;6.30;43.00;;;;;;5029154;28;20041;-71
2022/02/08 01:39:18;;;;;;;5.40;1.42;;;6.00;46.30;;;;;;5035053;28;20052;-71
2022/02/08 01:42:11;;;;;;;5.93;1.38;;;6.50;63.10;;;;;;5035093;28;20041;-71
2022/02/08 01:44:43;;;;;;;4.47;1.55;;;6.70;55.30;;;;;;5034488;28;20041;-71
2022/02/08 01:47:27;;;;;;;6.55;1.15;;;6.80;28.10;;;;;;5034268;28;20041;-71
2022/02/08 01:50:10;;;;;;;7.57;1.73;;;6.70;36.10;;;;;;5034718;28;20049;-71
2022/02/08 01:52:37;;;;;;;7.05;1.65;;;6.50;31.50;;;;;;5034274;28;20124;-71
2022/02/08 01:55:03;;;;;;;7.47;1.63;;;6.80;43.00;;;;;;5034185;28;20034;-71
2022/02/08 01:57:29;;;;;;;4.75;1.30;;;6.90;32.50;;;;;;5034319;28;20042;-71
2022/02/08 01:59:55;;;;;;;7.85;1.30;;;6.70;34.40;;;;;;5034816;28;20048;-71
2022/02/08 02:02:21;;;;;;;3.72;1.17;;;6.60;38.40;;;;;;5034864;28;20038;-71
2022/02/08 02:04:49;;;;;;;3.85;1.55;;;6.60;36.10;;;;;;5034399;28;20037;-71
2022/02/08 02:07:16;;;;;;;5.22;1.23;;;6.60;36.80;;;;;;5034619;28;20090;-72
2022/02/08 02:09:45;;;;;;;4.57;1.08;;;6.50;37.00;;;;;;5034686;28;20057;-72
2022/02/08 02:12:12;;;;;;;8.23;1.38;;;6.50;40.50;;;;;;5034268;28;20095;-71
2022/02/08 02:14:40;;;;;;;4.13;1.52;;;6.80;37.10;;;;;;5034312;28;20033;-72
2022/02/08 02:17:08;;;;;;;7.65;1.92;;;6.70;39.50;;;;;;5034731;28;20169;-71
2022/02/08 02:19:35;;;;;;;4.70;1.52;;;6.70;44.20;;;;;;5036943;28;20530;-71
2022/02/08 02:22:03;;;;;;;4.32;1.13;;;6.50;56.70;;;;;;5038342;28;20041;-71
2022/02/08 02:24:29;;;;;;;6.18;1.38;;;6.40;66.90;;;;;;5038344;28;20391;-72
2022/02/08 02:26:59;;;;;;;4.43;1.33;;;6.50;36.90;;;;;;5038724;28;20041;-71
2022/02/08 02:29:27;;;;;;;6.13;1.77;;;6.30;64.20;;;;;;5038086;28;20049;-71
2022/02/08 02:31:53;;;;;;;5.97;1.75;;;6.40;34.00;;;;;;5038138;28;20103;-72
2022/02/08 02:34:22;;;;;;;5.68;1.30;;;6.20;29.80;;;;;;5037321;28;20128;-71
2022/02/08 02:36:48;;;;;;;6.80;1.75;;;6.20;51.60;;;;;;5036956;28;20048;-72
2022/02/08 02:39:15;;;;;;;5.78;1.73;;;5.90;37.70;;;;;;5036775;28;20045;-71
2022/02/08 02:41:43;;;;;;;8.95;1.50;;;6.40;29.90;;;;;;5036759;28;20156;-71
2022/02/08 02:44:18;;;;;;;4.68;1.65;;;5.90;26.20;;;;;;5036979;28;20037;-71
2022/02/08 02:46:45;;;;;;;6.05;1.50;;;6.30;35.50;;;;;;5037268;28;20112;-71
2022/02/08 02:49:11;;;;;;;7.63;1.40;;;5.90;37.70;;;;;;5036657;28;20045;-71
2022/02/08 02:51:39;;;;;;;6.00;2.30;;;6.00;45.90;;;;;;5036868;28;20045;-71
2022/02/08 02:54:18;;;;;;;7.07;2.58;;;5.90;44.20;;;;;;5036443;28;20080;-72
2022/02/08 02:56:45;;;;;;;6.78;3.03;;;;;;;;;;5036541;28;20083;-71
2022/02/08 02:59:12;;;;;;;6.82;1.90;;;6.00;46.20;;;;;;5037411;28;20041;-71
2022/02/08 03:20:24;;;;;;;5.32;1.52;;;5.50;41.20;;;;;;5036904;28;20123;-71
2022/02/08 03:22:50;;;;;;;9.70;3.10;;;5.50;42.00;;;;;;5036675;28;20065;-72
2022/02/08 03:25:16;;;;;;;5.22;1.90;;;5.40;49.00;;;;;;5036063;28;20071;-71
2022/02/08 03:27:42;;;;;;;4.70;1.40;;;5.30;48.40;;;;;;5036295;28;20126;-72
2022/02/08 03:30:09;;;;;;;4.55;1.35;;;5.60;45.00;;;;;;5035987;28;20069;-71
2022/02/08 03:32:35;;;;;;;8.47;1.30;;;5.40;43.50;;;;;;4973152;28;1322280;-72
2022/02/08 03:35:01;;;;;;;4.05;1.30;;;5.50;41.40;;;;;;5037137;28;20272;-71
2022/02/08 03:37:30;;;;;;;4.63;1.13;;;5.60;40.50;;;;;;5037102;28;20042;-71
2022/02/08 03:40:02;;;;;;;5.38;1.10;;;5.70;39.40;;;;;;5036594;28;20123;-71
2022/02/08 03:42:58;;;;;;;5.00;1.33;;;5.60;38.30;;;;;;5037746;28;20038;-71
2022/02/08 03:45:16;;;;;;;4.35;1.30;;;5.70;36.50;;;;;;5035233;28;20519;-71
2022/02/08 03:47:42;;;;;;;6.15;1.45;;;5.80;36.30;;;;;;5036794;28;20156;-71
2022/02/08 03:50:08;;;;;;;6.72;2.60;;;5.70;37.50;;;;;;5036734;28;20579;-71
2022/02/08 03:52:34;;;;;;;4.43;1.40;;;5.90;35.40;;;;;;5036873;28;20041;-71
2022/02/08 03:55:00;;;;;;;6.28;1.40;;;5.70;34.80;;;;;;5036377;28;20036;-71
2022/02/08 03:57:27;;;;;;;3.42;1.20;;;5.60;35.70;;;;;;5018770;28;20107;-71
2022/02/08 03:59:53;;;;;;;5.57;1.00;;;5.40;36.00;;;;;;5036217;28;20041;-71
2022/02/08 04:02:38;;;;;;;6.30;1.25;;;5.50;36.40;;;;;;5036910;28;20068;-71
2022/02/08 04:05:16;;;;;;;3.40;1.40;;;5.40;32.40;;;;;;5036046;28;20083;-71
2022/02/08 04:07:47;;;;;;;4.47;0.82;;;5.50;31.50;;;;;;5036242;28;20162;-71
2022/02/08 04:10:22;;;;;;;5.40;1.50;;;5.80;30.40;;;;;;5036820;28;20049;-71
2022/02/08 04:40:13;;;;;;;;;;;5.90;25.20;;;;;;4994338;28;20034;-72
2022/02/08 04:43:00;;;;;;;7.15;1.10;;;6.00;25.20;;;;;;5031441;28;19909;-72
2022/02/08 04:45:37;;;;;;;4.53;1.23;;;6.00;25.70;;;;;;5038241;28;20033;-73
2022/02/08 04:48:11;;;;;;;5.82;1.30;;;5.90;25.80;;;;;;5055527;28;20098;-71
2022/02/08 04:50:38;;;;;;;4.85;1.33;;;5.80;25.70;;;;;;5054716;28;20075;-71
2022/02/08 04:53:13;;;;;;;4.05;0.88;;;5.70;25.80;;;;;;5053459;28;20068;-71
2022/02/08 04:55:49;;;;;;;5.97;1.00;;;5.50;26.00;;;;;;5052126;28;20045;-71
2022/02/08 05:01:45;;;;;;;3.50;1.13;;;5.50;29.80;;;;;;5040779;28;20083;-71
2022/02/08 05:46:54;;;;;;;6.65;1.20;;;3.90;95.30;;;;;;5054639;28;20145;-71
2022/02/08 05:49:25;;;;;;;6.10;1.27;;;4.30;94.70;;;;;;5054216;28;20128;-71
2022/02/08 05:54:20;;;;;;;8.60;1.23;;;4.50;94.70;;;;;;5054812;28;20369;-71
2022/02/08 05:56:51;;;;;;;5.28;1.25;;;4.70;95.70;;;;;;5054477;28;20044;-71
2022/02/08 05:59:17;;;;;;;10.00;4.00;;;4.70;94.50;;;;;;5055397;28;20028;-71
2022/02/08 06:01:42;;;;;;;8.93;4.82;;;4.50;94.70;;;;;;5054650;28;20480;-71
2022/02/08 06:04:10;;;;;;;12.93;5.50;;;4.20;97.00;;;;;;5054265;28;20041;-72
2022/02/08 06:06:36;;;;;;;11.55;6.00;;;4.10;98.80;;;;;;5054234;28;20037;-71
2022/02/08 06:09:02;;;;;;;12.00;5.35;;;4.00;99.90;;;;;;5054259;28;20029;-71
2022/02/08 06:11:28;;;;;;;9.65;4.03;;;3.90;99.90;;;;;;5053459;28;20098;-71
2022/02/08 06:13:54;;;;;;;9.40;3.75;;;3.70;99.90;;;;;;5054544;28;20479;-71
2022/02/08 06:16:22;;;;;;;12.52;4.88;;;3.70;99.90;;;;;;5054608;28;20098;-71
2022/02/08 06:18:47;;;;;;;11.52;4.13;;;3.50;99.90;;;;;;5054101;28;20041;-71
2022/02/08 06:21:14;;;;;;;5.70;3.40;;;3.40;99.90;;;;;;5054573;28;20041;-71
2022/02/08 06:23:40;;;;;;;5.72;2.58;;;3.30;99.90;;;;;;5054530;28;20379;-71
2022/02/08 06:26:06;;;;;;;6.63;2.45;;;3.20;99.90;;;;;;5054660;28;20037;-71
2022/02/08 06:28:32;;;;;;;9.90;4.20;;;3.10;99.90;;;;;;5053920;28;20044;-72
2022/02/08 06:30:58;;;;;;;10.25;3.63;;;3.00;99.90;;;;;;5054419;28;20049;-70
2022/02/08 06:33:24;;;;;;;8.55;3.10;;;2.90;99.90;;;;;;5053691;28;20071;-71
2022/02/08 06:35:50;;;;;;;7.45;2.85;;;3.00;99.90;;;;;;5036187;28;20091;-72
2022/02/08 06:38:18;;;;;;;7.65;3.65;;;2.60;99.90;;;;;;5053644;28;20129;-70
2022/02/08 06:40:48;;;;;;;7.13;2.80;;;2.80;99.90;;;;;;5047679;28;20044;-70
2022/02/08 06:43:15;;;;;;;6.32;2.05;;;2.80;99.90;;;;;;5052430;28;20115;-70
2022/02/08 06:45:41;;;;;;;6.28;1.90;;;2.60;99.90;;;;;;5053021;28;20395;-70
2022/02/08 06:48:08;;;;;;;7.20;2.40;;;2.80;99.90;;;;;;5051784;28;20037;-70
2022/02/08 06:50:34;;;;;;;8.27;3.00;;;2.60;99.90;;;;;;5052001;28;20044;-70
2022/02/08 06:53:00;;;;;;;6.80;2.10;;;2.50;99.90;;;;;;5033336;28;20034;-70
2022/02/08 06:55:28;;;;;;;5.95;2.58;;;2.70;99.90;;;;;;5033268;28;20099;-70
2022/02/08 06:58:04;;;;;;;9.80;2.33;;;2.60;99.90;;;;;;5033095;28;20041;-70
2022/02/08 07:00:43;;;;;;;8.20;1.38;;;2.60;99.90;;;;;;5033793;28;20077;-70
2022/02/08 07:03:11;;;;;;;5.85;2.13;;;2.60;99.90;;;;;;5033741;28;20054;-70
2022/02/08 07:05:38;;;;;;;5.22;1.83;;;2.20;99.90;;;;;;5036567;28;20123;-70
2022/02/08 07:08:05;;;;;;;7.07;2.00;;;2.30;99.90;;;;;;5037075;28;20179;-70
2022/02/08 07:10:32;;;;;;;6.75;1.77;;;2.40;99.90;;;;;;5037448;28;20045;-70
2022/02/08 07:12:58;;;;;;;6.13;1.65;;;2.40;99.90;;;;;;5036839;28;20033;-70
2022/02/08 07:15:24;;;;;;;6.78;2.17;;;2.40;99.90;;;;;;5037368;28;20033;-70
2022/02/08 07:17:50;;;;;;;5.72;2.03;;;2.40;99.90;;;;;;5037315;28;20103;-70
2022/02/08 07:20:16;;;;;;;6.53;2.00;;;2.40;99.90;;;;;;5036724;28;20041;-69
2022/02/08 07:22:42;;;;;;;7.38;2.40;;;2.30;99.90;;;;;;5037057;28;20124;-71
2022/02/08 07:25:09;;;;;;;8.50;2.35;;;2.40;99.90;;;;;;5036264;28;20182;-70
2022/02/08 07:27:36;;;;;;;4.80;2.15;;;2.30;99.90;;;;;;5037177;28;20131;-70
2022/02/08 07:30:09;;;;;;;2.95;1.42;;;2.50;99.90;;;;;;5036912;28;20047;-71
2022/02/08 07:32:37;;;;;;;4.68;1.77;;;2.40;99.90;;;;;;5036511;28;20057;-73
2022/02/08 07:40:30;;;;;;;2.55;1.52;;;2.60;99.90;;;;;;5056539;28;20033;-69
2022/02/08 07:42:56;;;;;;;7.07;1.80;;;2.60;99.90;;;;;;5051337;28;20043;-69
2022/02/08 07:45:23;;;;;;;7.85;2.15;;;2.50;99.90;;;;;;5039496;28;20041;-69
2022/02/08 07:47:49;;;;;;;6.50;1.73;;;2.70;99.90;;;;;;5054250;28;20048;-69
2022/02/08 07:50:15;;;;;;;7.95;2.17;;;2.70;99.90;;;;;;5055761;28;20071;-69
2022/02/08 07:52:43;;;;;;;6.50;2.00;;;2.70;99.90;;;;;;5056211;28;20064;-69
2022/02/08 07:55:09;;;;;;;5.90;2.38;;;2.90;99.90;;;;;;5056288;28;20043;-69
2022/02/08 07:57:35;;;;;;;9.75;2.80;;;3.00;99.90;;;;;;5056237;28;20120;-70
2022/02/08 08:00:01;;;;;;;8.75;2.08;;;3.10;99.90;;;;;;5056635;28;20040;-69
2022/02/08 08:02:27;;;;;;;13.02;2.13;;;3.10;99.90;;;;;;5056222;28;20052;-69
2022/02/08 08:04:52;;;;;;;11.75;2.38;;;3.20;99.90;;;;;;5056262;28;20033;-70
2022/02/08 08:07:18;;;;;;;5.85;1.83;;;3.30;99.90;;;;;;5051944;28;20056;-70
2022/02/08 08:09:44;;;;;;;18.75;7.88;;;3.40;99.90;;;;;;5051101;28;20090;-70
2022/02/08 08:12:13;;;;;;;12.80;4.80;;;3.50;99.90;;;;;;5053954;28;20049;-69
2022/02/08 08:14:39;;;;;;;27.38;10.10;;;3.70;99.90;;;;;;5054453;28;20033;-69
2022/02/08 08:20:00;;;;;;;11.55;3.38;;;4.00;99.90;;;;;;5016465;28;20046;-69
2022/02/08 08:22:26;;;;;;;8.80;2.35;;;4.10;99.90;;;;;;5054260;28;20178;-69
2022/02/08 08:24:51;;;;;;;12.55;2.65;;;4.20;99.90;;;;;;5054532;28;20418;-69
2022/02/08 08:27:18;;;;;;;7.07;1.88;;;4.10;99.90;;;;;;5054091;28;20044;-69
2022/02/08 08:29:44;;;;;;;6.90;1.80;;;4.20;99.90;;;;;;5053770;28;20033;-69
2022/02/08 08:32:10;;;;;;;8.45;2.03;;;4.20;99.40;;;;;;5053890;28;20057;-69
2022/02/08 08:34:37;;;;;;;9.23;2.13;;;4.40;97.70;;;;;;5032624;28;20038;-68
2022/02/08 08:37:04;;;;;;;7.00;2.10;;;4.50;95.50;;;;;;5054167;28;20045;-70
2022/02/08 08:39:46;;;;;;;7.03;2.00;;;4.60;95.10;;;;;;5054121;28;20045;-70
2022/02/08 08:42:32;;;;;;;7.13;2.45;;;;;;;;;;5054292;28;20055;-70
2022/02/08 08:48:21;;;;;;;10.40;2.75;;;4.90;98.60;;;;;;5049051;28;20061;-70
2022/02/08 08:51:01;;;;;;;6.40;2.28;;;4.80;94.10;;;;;;5053881;28;20044;-70
2022/02/08 08:53:18;;;;;;;7.80;2.30;;;5.50;87.40;;;;;;5073451;28;20047;-70
2022/02/08 08:55:44;;;;;;;5.88;1.70;;;5.60;84.60;;;;;;5070013;28;20044;-70
2022/02/08 08:58:10;;;;;;;7.47;1.83;;;5.70;86.00;;;;;;5075129;28;20089;-70
2022/02/08 09:00:36;;;;;;;8.55;2.90;;;5.80;90.00;;;;;;5073771;28;20039;-70
2022/02/08 09:03:02;;;;;;;6.70;2.15;;;5.80;84.40;;;;;;5074926;28;20119;-70
2022/02/08 09:05:28;;;;;;;6.18;1.83;;;5.80;83.20;;;;;;5074795;28;20028;-70
2022/02/08 09:07:54;;;;;;;6.53;1.60;;;6.00;80.60;;;;;;5074329;28;20037;-70
2022/02/08 09:10:25;;;;;;;5.22;1.40;;;6.10;77.80;;;;;;5057186;28;20048;-70
2022/02/08 09:13:08;;;;;;;;;;;6.20;78.10;;;;;;5075843;28;20115;-71
2022/02/08 09:15:49;;;;;;;6.53;2.00;;;6.30;78.50;;;;;;5075316;28;19915;-71
2022/02/08 09:18:38;;;;;;;6.70;1.52;;;6.30;75.70;;;;;;5074381;28;20131;-70
2022/02/08 09:26:51;;;;;;;6.53;2.05;;;6.80;79.60;;;;;;5028668;28;20065;-70
2022/02/08 09:29:23;;;;;;;7.93;1.98;;;6.60;52.20;;;;;;5031664;28;20050;-70
2022/02/08 09:31:59;;;;;;;5.55;2.20;;;6.70;51.40;;;;;;5057958;28;20124;-70
2022/02/08 09:34:25;;;;;;;5.72;1.95;;;6.70;51.20;;;;;;5073226;28;20036;-70
2022/02/08 09:36:51;;;;;;;7.38;1.88;;;6.70;49.40;;;;;;5060597;28;20040;-71
2022/02/08 09:39:17;;;;;;;4.68;1.45;;;6.80;48.90;;;;;;5054301;28;20451;-71
2022/02/08 09:41:43;;;;;;;6.22;1.40;;;6.90;46.70;;;;;;5053757;28;20044;-71
2022/02/08 09:44:13;;;;;;;4.22;1.70;;;7.00;45.50;;;;;;5054377;28;20047;-71
2022/02/08 09:46:39;;;;;;;7.35;2.20;;;7.20;46.00;;;;;;5053689;28;20068;-70
2022/02/08 09:49:04;;;;;;;6.03;2.08;;;7.10;47.40;;;;;;5051957;28;20036;-71
2022/02/08 09:51:30;;;;;;;3.47;1.50;;;7.00;46.40;;;;;;5052549;28;20040;-71
2022/02/08 09:54:00;;;;;;;3.67;1.25;;;7.20;45.40;;;;;;5053636;28;20043;-71
2022/02/08 09:56:27;;;;;;;7.53;1.13;;;7.50;41.00;;;;;;5051721;28;20494;-71
2022/02/08 09:58:53;;;;;;;1.90;0.73;;;7.50;39.80;;;;;;5053658;28;20033;-71
2022/02/08 10:01:24;;;;;;;4.20;1.17;;;7.40;39.60;;;;;;5053329;28;20037;-71
2022/02/08 10:04:01;;;;;;;4.28;1.05;;;7.60;39.90;;;;;;5054004;28;20128;-71
2022/02/08 10:06:29;;;;;;;5.25;1.00;;;7.80;39.40;;;;;;5054149;28;20049;-71
2022/02/08 10:09:06;;;;;;;2.40;0.80;;;7.70;38.60;;;;;;5053388;28;20060;-71
2022/02/08 10:11:45;;;;;;;3.33;1.10;;;7.70;42.10;;;;;;5053305;28;20045;-71
2022/02/08 10:22:36;;;;;;;2.30;0.90;;;8.00;48.80;;;;;;5053513;28;20032;-71
2022/02/08 10:25:21;;;;;;;2.08;1.08;;;8.20;57.30;;;;;;5053889;28;20436;-71
2022/02/08 10:28:14;;;;;;;3.38;1.13;;;8.30;51.20;;;;;;5051511;28;20098;-70
2022/02/08 10:38:38;;;;;;;4.10;0.70;;;8.60;37.80;;;;;;5052868;28;20044;-70
2022/02/08 10:41:14;;;;;;;2.40;0.75;;;8.70;38.20;;;;;;5057175;28;20170;-70
2022/02/08 10:43:42;;;;;;;1.30;0.80;;;8.60;48.70;;;;;;5057833;28;20049;-70
2022/02/08 10:46:19;;;;;;;3.25;1.08;;;8.50;53.60;;;;;;5057346;28;20112;-70
2022/02/08 10:48:45;;;;;;;2.33;0.80;;;8.60;58.70;;;;;;5057398;28;20045;-70
2022/02/08 10:51:14;;;;;;;3.47;0.75;;;8.70;34.50;;;;;;5057082;28;20149;-70
2022/02/08 10:53:52;;;;;;;3.15;0.90;;;8.90;34.80;;;;;;5056955;28;20092;-70
2022/02/08 10:56:23;;;;;;;4.50;0.90;;;;;;;;;;5055664;28;20040;-70
2022/02/08 10:58:55;;;;;;;1.65;0.60;;;8.90;27.80;;;;;;5057433;28;20040;-70
2022/02/08 11:01:27;;;;;;;3.90;0.80;;;9.20;30.70;;;;;;5056105;28;20124;-70
2022/02/08 11:04:01;;;;;;;2.10;0.93;;;9.10;29.40;;;;;;5056086;28;20144;-71
2022/02/08 11:06:36;;;;;;;2.42;1.08;;;9.10;28.40;;;;;;5057401;28;20048;-70
2022/02/08 11:09:33;;;;;;;3.63;1.08;;;9.10;30.50;;;;;;5056479;28;20049;-71
2022/02/08 11:14:45;;;;;;;1.30;0.77;;;9.20;33.50;;;;;;5057115;28;20033;-70
2022/02/08 11:22:46;;;;;;;2.47;0.82;;;9.80;46.80;;;;;;5056191;28;20029;-70
2022/02/08 11:25:22;;;;;;;1.27;0.65;;;9.90;32.10;;;;;;5056979;28;20170;-70
2022/02/08 11:27:58;;;;;;;1.40;0.45;;;10.00;31.80;;;;;;5054696;28;20036;-70
2022/02/08 11:30:36;;;;;;;70.70;57.95;;;10.00;33.90;;;;;;5056480;28;20048;-70
2022/02/08 11:33:24;;;;;;;4.65;3.17;;;;;;;;;;5056886;28;20076;-70
2022/02/08 11:39:26;;;;;;;8.93;2.55;;;10.40;17.20;;;;;;5056223;28;20043;-70
2022/02/08 11:47:33;;;;;;;3.72;0.95;;;10.50;71.50;;;;;;5057123;28;20029;-70
2022/02/08 11:55:27;;;;;;;5.22;1.05;;;10.80;21.70;;;;;;5056538;28;20040;-71
2022/02/08 12:00:32;;;;;;;4.82;1.17;;;10.80;26.40;;;;;;5045737;28;20507;-71
2022/02/08 12:03:40;;;;;;;4.03;0.95;;;10.10;39.90;;;;;;5036204;28;20033;-70
2022/02/08 12:08:53;;;;;;;10.80;6.17;;;11.30;27.60;;;;;;5035722;28;20033;-70
2022/02/08 12:11:39;;;;;;;2.80;1.47;;;11.70;14.70;;;;;;5034711;28;20806;-70
2022/02/08 12:33:32;;;;;;;1.83;0.88;;;11.90;13.20;;;;;;5033196;28;20084;-70
2022/02/08 12:57:59;;;;;;;2.75;1.30;;;12.40;22.30;;;;;;5030845;28;20037;-72
2022/02/08 13:00:42;;;;;;;6.15;3.17;;;12.20;23.50;;;;;;5024853;28;20068;-72
2022/02/08 13:03:24;;;;;;;10.98;6.13;;;12.30;24.30;;;;;;5027380;28;20167;-72
2022/02/08 13:14:56;;;;;;;3.95;2.15;;;12.50;38.90;;;;;;5033075;28;20037;-71
2022/02/08 14:06:35;;;;;;;4.55;1.90;;;;;;;;;;5031075;28;20408;-71
2022/02/08 14:12:05;;;;;;;5.20;1.80;;;12.10;43.70;;;;;;5033649;28;20476;-71
2022/02/08 14:17:40;;;;;;;3.83;1.42;;;11.40;35.80;;;;;;4983904;28;20042;-71
2022/02/08 14:25:20;;;;;;;4.35;1.45;;;11.60;50.30;;;;;;5038130;28;20041;-71
2022/02/08 14:30:47;;;;;;;9.40;5.95;;;11.60;22.90;;;;;;5037129;28;20534;-72
2022/02/08 14:36:17;;;;;;;4.75;1.85;;;11.60;24.90;;;;;;5038062;28;20124;-72
2022/02/08 14:58:16;;;;;;;5.13;2.25;;;11.70;38.90;;;;;;5037378;28;20044;-70
2022/02/08 15:13:07;;;;;;;4.80;2.03;;;11.80;39.20;;;;;;5045262;28;20060;-72
2022/02/08 15:17:59;;;;;;;3.25;1.75;;;11.50;37.60;;;;;;5057370;28;20091;-72
2022/02/08 15:20:26;;;;;;;5.07;2.00;;;11.10;41.30;;;;;;5057460;28;20120;-72
2022/02/08 15:22:54;;;;;;;5.03;1.52;;;10.90;52.10;;;;;;5057167;28;20040;-72
2022/02/08 15:25:20;;;;;;;3.33;1.50;;;11.00;33.50;;;;;;5056193;28;20431;-72
2022/02/08 15:27:47;;;;;;;3.67;1.80;;;10.90;35.60;;;;;;5057161;28;20037;-72
2022/02/08 15:30:14;;;;;;;4.35;1.60;;;10.80;26.40;;;;;;5067671;28;20036;-72
2022/02/08 15:32:41;;;;;;;3.70;1.30;;;10.90;29.20;;;;;;5056456;28;20048;-72
2022/02/08 15:35:09;;;;;;;2.38;1.58;;;10.80;33.70;;;;;;5056317;28;20106;-74
2022/02/08 15:37:36;;;;;;;2.72;1.38;;;10.90;56.90;;;;;;5024675;28;20059;-71
2022/02/08 15:40:06;;;;;;;6.85;1.67;;;;;;;;;;5047809;28;20055;-71
2022/02/08 15:42:34;;;;;;;5.07;1.40;;;10.30;60.80;;;;;;5054529;28;20126;-72
2022/02/08 15:45:12;;;;;;;2.53;1.17;;;10.60;52.10;;;;;;5055138;28;20033;-71
2022/02/08 15:47:40;;;;;;;5.95;1.80;;;10.50;48.30;;;;;;5054940;28;20041;-71
2022/02/08 15:50:20;;;;;;;3.72;1.10;;;10.60;51.80;;;;;;5054947;28;20072;-71
2022/02/08 15:55:28;;;;;;;5.28;2.60;;;10.80;60.10;;;;;;5055559;28;20552;-71
2022/02/08 16:08:28;;;;;;;5.20;2.15;;;10.10;51.10;;;;;;5055382;28;20487;-72
2022/02/08 16:11:08;;;;;;;4.78;1.75;;;9.90;51.10;;;;;;5050856;28;20037;-72
2022/02/08 16:13:46;;;;;;;3.87;1.57;;;9.80;49.60;;;;;;5074037;28;20049;-72
2022/02/08 16:22:17;;;;;;;4.68;1.48;;;9.20;33.80;;;;;;5040818;28;20072;-72
2022/02/08 16:25:02;;;;;;;3.63;1.52;;;9.10;29.20;;;;;;5075278;28;20037;-72
2022/02/08 16:48:55;;;;;;;5.80;3.10;;;9.40;57.10;;;;;;5073672;28;20107;-71
2022/02/08 16:55:13;;;;;;;4.53;2.50;;;9.30;71.90;;;;;;5046789;28;20541;-71
2022/02/08 16:57:53;;;;;;;7.95;2.20;;;9.20;41.10;;;;;;5055025;28;20048;-71
2022/02/08 17:00:22;;;;;;;3.70;2.10;;;8.70;41.60;;;;;;5054207;28;20597;-71
2022/02/08 17:02:54;;;;;;;6.60;2.17;;;8.50;48.60;;;;;;5055096;28;20041;-72
2022/02/08 17:05:21;;;;;;;11.90;2.90;;;8.10;37.90;;;;;;5054542;28;20053;-71
2022/02/08 17:07:47;;;;;;;6.43;2.28;;;8.10;31.40;;;;;;5054742;28;20033;-71
2022/02/08 17:10:37;;;;;;;8.65;2.78;;;7.90;32.60;;;;;;5053815;28;20041;-71
2022/02/08 17:34:36;;;;;;;18.65;10.68;;;6.60;72.00;;;;;;5013734;28;20045;-72
2022/02/08 17:45:42;;;;;;;14.15;5.00;;;6.10;61.90;;;;;;5013978;28;20518;-72
2022/02/08 17:48:04;;;;;;;9.48;3.80;;;6.00;67.50;;;;;;5014407;28;20050;-72
2022/02/08 17:50:30;;;;;;;10.52;3.13;;;5.80;73.70;;;;;;5013853;28;20042;-72
2022/02/08 17:52:55;;;;;;;7.03;3.95;;;5.90;96.80;;;;;;5014334;28;20049;-71
2022/02/08 17:55:22;;;;;;;10.02;5.03;;;5.80;99.90;;;;;;5016077;28;20057;-73
2022/02/08 17:57:49;;;;;;;11.05;5.50;;;5.70;99.90;;;;;;5016723;28;20038;-75
2022/02/08 18:00:16;;;;;;;8.73;4.50;;;5.80;99.90;;;;;;5015138;28;20038;-73
2022/02/08 18:02:44;;;;;;;10.68;4.03;;;;;;;;;;5015093;28;20038;-73
2022/02/08 18:05:14;;;;;;;7.35;3.58;;;;;;;;;;5014429;28;20034;-72
2022/02/08 18:07:41;;;;;;;7.55;3.28;;;;;;;;;;5014997;28;20045;-71
2022/02/08 18:10:08;;;;;;;5.60;3.30;;;5.50;99.90;;;;;;5013876;28;20136;-73
2022/02/08 18:12:36;;;;;;;6.57;3.00;;;;;;;;;;5014778;28;20050;-72
2022/02/08 18:15:08;;;;;;;9.93;4.45;;;5.40;98.20;;;;;;5015184;28;20070;-73
2022/02/08 18:17:40;;;;;;;10.52;4.65;;;;;;;;;;5002594;28;20034;-72
2022/02/08 18:22:49;;;;;;;7.13;3.85;;;5.30;99.90;;;;;;4994485;28;20440;-72
2022/02/08 18:25:37;;;;;;;6.43;3.05;;;5.30;94.10;;;;;;4994413;28;20130;-71
2022/02/08 18:50:28;;;;;;;9.40;3.80;;;4.90;93.50;;;;;;4993591;28;20053;-72
2022/02/08 19:04:46;;;;;;;12.98;5.38;;;4.20;95.40;;;;;;5037044;28;20048;-72
2022/02/08 19:12:30;;;;;;;8.45;4.28;;;4.20;90.50;;;;;;5029248;28;20030;-71
2022/02/08 19:15:37;;;;;;;10.95;6.18;;;3.90;93.00;;;;;;5036031;28;20045;-71
2022/02/08 19:20:38;;;;;;;11.63;7.10;;;3.90;96.60;;;;;;5036990;28;20083;-71
2022/02/08 19:23:04;;;;;;;12.88;7.95;;;3.80;90.60;;;;;;5037421;28;20096;-72
2022/02/08 19:25:29;;;;;;;14.98;10.85;;;3.70;90.90;;;;;;5037237;28;20488;-72
2022/02/08 19:27:57;;;;;;;14.57;6.47;;;3.70;92.30;;;;;;5034712;28;20044;-72
2022/02/08 19:30:23;;;;;;;15.90;8.70;;;3.50;88.60;;;;;;5035796;28;20553;-71
2022/02/08 19:32:49;;;;;;;9.75;5.57;;;3.50;90.50;;;;;;5036959;28;20132;-72
2022/02/08 19:35:16;;;;;;;51.75;30.38;;;3.40;90.40;;;;;;5042264;28;20170;-71
2022/02/08 19:37:45;;;;;;;17.48;9.15;;;3.40;99.80;;;;;;5053708;28;20094;-71
2022/02/08 19:40:13;;;;;;;14.60;7.78;;;3.20;95.70;;;;;;5058851;28;20041;-71
2022/02/08 19:42:39;;;;;;;17.73;7.00;;;3.20;97.30;;;;;;5046236;28;20051;-71
2022/02/08 19:45:16;;;;;;;27.05;15.40;;;3.10;98.60;;;;;;5055327;28;20037;-71
2022/02/08 19:47:43;;;;;;;23.02;13.77;;;3.10;94.90;;;;;;5056013;28;20048;-71
2022/02/08 19:50:14;;;;;;;40.42;25.73;;;3.20;90.70;;;;;;5028342;28;20538;-71
2022/02/08 19:52:41;;;;;;;18.48;9.13;;;3.20;94.10;;;;;;5037894;28;20037;-71
2022/02/08 19:57:44;;;;;;;13.88;5.75;;;3.20;99.90;;;;;;5055823;28;20407;-72
2022/02/08 20:00:16;;;;;;;17.27;9.25;;;;;;;;;;5054307;28;20124;-71
2022/02/08 20:02:47;;;;;;;11.40;5.55;;;3.00;97.60;;;;;;5055572;28;20136;-71
2022/02/08 20:05:16;;;;;;;7.13;4.13;;;3.00;98.80;;;;;;5055505;28;20048;-72
2022/02/08 20:07:43;;;;;;;10.18;4.82;;;2.90;99.90;;;;;;5055029;28;20071;-72
2022/02/08 20:10:09;;;;;;;11.77;6.03;;;2.80;99.90;;;;;;5040529;28;20487;-71
2022/02/08 20:12:36;;;;;;;10.75;5.68;;;2.90;99.90;;;;;;5053887;28;20044;-71
2022/02/08 20:15:06;;;;;;;9.30;5.03;;;2.50;98.80;;;;;;5052993;28;20043;-71
2022/02/08 20:17:34;;;;;;;11.70;4.93;;;2.80;95.50;;;;;;5052801;28;20041;-71
2022/02/08 20:20:07;;;;;;;11.85;5.93;;;2.60;93.70;;;;;;5054383;28;20562;-71
2022/02/08 20:22:33;;;;;;;8.82;5.45;;;2.60;96.50;;;;;;5055378;28;20470;-71